createdAt,value
2023-03-22T00:01:52.038Z,23.81
2023-03-22T00:04:18.891Z,23.77
2023-03-22T00:06:45.777Z,23.74
2023-03-22T00:09:12.699Z,23.75
2023-03-22T00:11:39.590Z,23.75
2023-03-22T00:14:06.471Z,23.74
2023-03-22T00:16:33.350Z,23.78
2023-03-22T00:19:01.576Z,23.77
2023-03-22T00:21:28.436Z,23.76
2023-03-22T00:23:55.235Z,23.81
2023-03-22T00:26:22.056Z,23.85
2023-03-22T00:28:49.527Z,23.89
2023-03-22T00:31:16.360Z,23.89
2023-03-22T00:33:43.181Z,23.88
2023-03-22T00:36:12.219Z,23.86
2023-03-22T00:38:43.682Z,23.84
2023-03-22T00:41:12.097Z,23.84
2023-03-22T00:43:38.968Z,23.84
2023-03-22T00:46:06.256Z,23.82
2023-03-22T00:48:33.109Z,23.80
2023-03-22T00:51:00.042Z,23.76
2023-03-22T00:53:28.332Z,23.76
2023-03-22T00:55:55.586Z,23.78
2023-03-22T00:58:22.388Z,23.71
2023-03-22T01:00:49.337Z,23.71
2023-03-22T01:03:16.265Z,23.73
2023-03-22T01:05:44.973Z,23.74
2023-03-22T01:08:11.888Z,23.76
2023-03-22T01:10:41.087Z,23.76
2023-03-22T01:13:08.448Z,23.80
2023-03-22T01:15:35.304Z,23.83
2023-03-22T01:18:02.811Z,23.85
2023-03-22T01:20:29.786Z,23.85
2023-03-22T01:22:56.622Z,23.86
2023-03-22T01:25:23.475Z,23.87
2023-03-22T01:27:51.652Z,23.86
2023-03-22T01:30:18.553Z,23.82
2023-03-22T01:32:45.484Z,23.81
2023-03-22T01:35:12.594Z,23.80
2023-03-22T01:37:39.411Z,23.77
2023-03-22T01:40:07.071Z,23.78
2023-03-22T01:42:34.510Z,23.77
2023-03-22T01:45:20.142Z,23.74
2023-03-22T01:47:50.764Z,23.70
2023-03-22T01:50:17.827Z,23.69
2023-03-22T01:52:44.817Z,23.68
2023-03-22T01:55:11.854Z,23.70
2023-03-22T01:57:40.742Z,23.74
2023-03-22T02:03:24.961Z,23.80
2023-03-22T02:05:52.362Z,23.83
2023-03-22T02:08:19.822Z,23.84
2023-03-22T02:10:46.714Z,23.87
2023-03-22T02:13:19.794Z,23.85
2023-03-22T02:15:48.851Z,23.81
2023-03-22T02:18:22.113Z,23.80
2023-03-22T02:21:06.575Z,23.76
2023-03-22T02:24:01.438Z,23.73
2023-03-22T02:26:41.212Z,23.72
2023-03-22T02:29:12.928Z,23.68
2023-03-22T02:31:47.423Z,23.66
2023-03-22T02:34:28.976Z,23.67
2023-03-22T02:37:06.656Z,23.65
2023-03-22T02:39:40.502Z,23.66
2023-03-22T02:42:14.513Z,23.68
2023-03-22T02:44:42.606Z,23.68
2023-03-22T02:47:18.029Z,23.68
2023-03-22T02:49:47.106Z,23.71
2023-03-22T02:52:16.791Z,23.77
2023-03-22T02:54:48.834Z,23.78
2023-03-22T02:57:16.951Z,23.81
2023-03-22T02:59:45.455Z,23.81
2023-03-22T03:02:14.297Z,23.79
2023-03-22T03:04:43.529Z,23.77
2023-03-22T03:07:12.401Z,23.75
2023-03-22T03:09:40.660Z,23.74
2023-03-22T03:12:14.087Z,23.73
2023-03-22T03:14:40.894Z,23.74
2023-03-22T03:17:13.005Z,23.72
2023-03-22T03:19:45.158Z,23.67
2023-03-22T03:22:24.374Z,23.69
2023-03-22T03:24:54.640Z,23.67
2023-03-22T03:27:25.267Z,23.66
2023-03-22T03:29:55.170Z,23.65
2023-03-22T03:32:26.641Z,23.68
2023-03-22T03:34:55.682Z,23.68
2023-03-22T03:37:24.706Z,23.66
2023-03-22T03:39:54.086Z,23.69
2023-03-22T03:42:22.589Z,23.72
2023-03-22T03:44:50.916Z,23.76
2023-03-22T03:47:18.287Z,23.78
2023-03-22T03:49:45.110Z,23.78
2023-03-22T03:52:11.918Z,23.77
2023-03-22T03:54:38.740Z,23.78
2023-03-22T03:57:05.594Z,23.76
2023-03-22T03:59:32.397Z,23.74
2023-03-22T04:02:00.607Z,23.75
2023-03-22T04:04:28.160Z,23.72
2023-03-22T04:06:55.849Z,23.67
2023-03-22T04:09:23.054Z,23.70
2023-03-22T04:11:50.232Z,23.64
2023-03-22T04:14:17.021Z,23.68
2023-03-22T04:16:43.886Z,23.64
2023-03-22T04:19:12.101Z,23.67
2023-03-22T04:21:38.966Z,23.66
2023-03-22T04:24:05.934Z,23.65
2023-03-22T04:26:32.786Z,23.65
2023-03-22T04:28:59.593Z,23.62
2023-03-22T04:31:26.568Z,23.71
2023-03-22T04:33:53.448Z,23.71
2023-03-22T04:36:21.865Z,23.76
2023-03-22T04:38:49.038Z,23.76
2023-03-22T04:41:16.028Z,23.77
2023-03-22T04:43:42.984Z,23.78
2023-03-22T04:46:09.831Z,23.74
2023-03-22T04:48:37.079Z,23.75
2023-03-22T04:51:04.340Z,23.86
2023-03-22T04:53:32.565Z,24.04
2023-03-22T04:55:59.401Z,23.97
2023-03-22T04:58:26.833Z,23.86
2023-03-22T05:00:53.805Z,23.73
2023-03-22T05:03:20.868Z,23.52
2023-03-22T05:05:50.941Z,23.46
2023-03-22T05:08:17.808Z,23.40
2023-03-22T05:10:46.006Z,23.39
2023-03-22T05:13:12.834Z,23.41
2023-03-22T05:15:39.768Z,23.53
2023-03-22T05:18:06.697Z,23.85
2023-03-22T05:20:33.524Z,24.18
2023-03-22T05:23:00.347Z,24.48
2023-03-22T05:25:27.172Z,24.65
2023-03-22T05:27:55.345Z,24.72
2023-03-22T05:30:22.152Z,24.76
2023-03-22T05:32:49.035Z,24.73
2023-03-22T05:35:15.959Z,24.72
2023-03-22T05:37:42.848Z,24.70
2023-03-22T05:40:09.894Z,24.65
2023-03-22T05:42:36.704Z,24.63
2023-03-22T05:45:05.360Z,24.63
2023-03-22T05:47:32.176Z,24.63
2023-03-22T05:49:58.965Z,24.65
2023-03-22T05:52:25.770Z,24.47
2023-03-22T05:54:52.624Z,24.28
2023-03-22T05:57:19.458Z,24.23
2023-03-22T05:59:46.270Z,24.02
2023-03-22T06:02:16.723Z,23.82
2023-03-22T06:04:43.720Z,23.67
2023-03-22T06:07:10.517Z,23.46
2023-03-22T06:09:37.391Z,23.36
2023-03-22T06:12:04.776Z,23.21
2023-03-22T06:14:31.584Z,22.99
2023-03-22T06:16:58.464Z,22.96
2023-03-22T06:19:26.630Z,23.25
2023-03-22T06:21:54.122Z,23.31
2023-03-22T06:24:21.042Z,23.35
2023-03-22T06:26:47.841Z,23.43
2023-03-22T06:29:14.642Z,23.38
2023-03-22T06:31:41.577Z,23.35
2023-03-22T06:34:08.380Z,23.40
2023-03-22T06:36:36.554Z,23.44
2023-03-22T06:39:03.555Z,23.45
2023-03-22T06:41:30.479Z,23.44
2023-03-22T06:43:57.300Z,23.46
2023-03-22T06:46:24.243Z,23.46
2023-03-22T06:48:51.108Z,23.49
2023-03-22T06:51:17.927Z,23.45
2023-03-22T06:53:46.127Z,23.47
2023-03-22T06:56:12.979Z,23.53
2023-03-22T06:58:39.770Z,23.55
2023-03-22T07:01:06.692Z,23.56
2023-03-22T07:03:33.498Z,23.55
2023-03-22T07:06:00.833Z,23.56
2023-03-22T07:08:27.656Z,23.53
2023-03-22T07:10:55.800Z,23.49
2023-03-22T07:13:22.625Z,23.49
2023-03-22T07:15:49.570Z,23.46
2023-03-22T07:18:16.402Z,23.43
2023-03-22T07:20:43.200Z,23.45
2023-03-22T07:23:10.076Z,23.41
2023-03-22T07:25:36.927Z,23.43
2023-03-22T07:28:05.083Z,23.44
2023-03-22T07:30:31.965Z,23.39
2023-03-22T07:32:58.765Z,23.38
2023-03-22T07:35:26.953Z,23.39
2023-03-22T07:37:53.905Z,23.39
2023-03-22T07:40:20.794Z,23.42
2023-03-22T07:42:47.988Z,23.43
2023-03-22T07:45:16.323Z,23.49
2023-03-22T07:47:43.324Z,23.51
2023-03-22T07:50:10.821Z,23.54
2023-03-22T07:52:37.666Z,23.53
2023-03-22T07:55:04.806Z,23.51
2023-03-22T07:57:31.868Z,23.43
2023-03-22T07:59:58.827Z,23.42
2023-03-22T08:02:27.098Z,23.44
2023-03-22T08:04:56.210Z,23.40
2023-03-22T08:07:23.672Z,23.44
2023-03-22T08:09:50.599Z,23.48
2023-03-22T08:12:17.578Z,23.49
2023-03-22T08:14:44.579Z,23.47
2023-03-22T08:17:11.410Z,23.57
2023-03-22T08:19:39.761Z,23.61
2023-03-22T08:22:06.741Z,23.50
2023-03-22T08:24:33.840Z,23.45
2023-03-22T08:27:00.652Z,23.39
2023-03-22T08:29:27.606Z,23.40
2023-03-22T08:31:54.473Z,23.37
2023-03-22T08:34:21.369Z,23.44
2023-03-22T08:36:49.694Z,23.55
2023-03-22T08:39:16.504Z,23.55
2023-03-22T08:41:43.326Z,23.56
2023-03-22T08:44:10.993Z,23.58
2023-03-22T08:46:37.824Z,23.62
2023-03-22T08:49:04.655Z,23.69
2023-03-22T08:51:31.493Z,23.73
2023-03-22T08:54:01.657Z,23.69
2023-03-22T08:56:28.472Z,23.69
2023-03-22T08:58:55.307Z,23.80
2023-03-22T09:01:22.250Z,23.89
2023-03-22T09:03:49.096Z,24.01
2023-03-22T09:06:15.931Z,23.95
2023-03-22T09:08:42.856Z,23.94
2023-03-22T09:11:11.501Z,23.80
2023-03-22T09:13:38.805Z,23.71
2023-03-22T09:16:06.570Z,23.72
2023-03-22T09:18:33.410Z,23.70
2023-03-22T09:21:00.233Z,23.74
2023-03-22T09:23:27.083Z,23.73
2023-03-22T09:25:53.912Z,23.76
2023-03-22T09:28:22.192Z,23.86
2023-03-22T09:30:49.028Z,23.93
2023-03-22T09:33:15.838Z,24.03
2023-03-22T09:35:43.601Z,24.03
2023-03-22T09:38:11.098Z,24.04
2023-03-22T09:40:43.114Z,24.10
2023-03-22T09:43:12.133Z,24.10
2023-03-22T09:45:43.017Z,24.17
2023-03-22T09:48:14.009Z,24.20
2023-03-22T09:50:44.490Z,24.14
2023-03-22T09:53:13.077Z,24.07
2023-03-22T09:55:43.335Z,24.07
2023-03-22T09:58:16.516Z,24.10
2023-03-22T10:00:47.420Z,24.07
2023-03-22T10:03:19.287Z,24.06
2023-03-22T10:05:49.486Z,24.08
2023-03-22T10:08:32.010Z,24.06
2023-03-22T10:10:59.554Z,24.05
2023-03-22T10:13:32.017Z,24.11
2023-03-22T10:16:02.145Z,24.15
2023-03-22T10:18:33.011Z,24.24
2023-03-22T10:21:01.359Z,24.24
2023-03-22T10:23:31.437Z,24.35
2023-03-22T10:25:59.985Z,24.33
2023-03-22T10:28:28.901Z,24.31
2023-03-22T10:30:58.061Z,24.34
2023-03-22T10:33:35.299Z,24.32
2023-03-22T10:36:03.995Z,24.33
2023-03-22T10:38:31.522Z,24.37
2023-03-22T10:40:59.264Z,24.33
2023-03-22T10:43:30.266Z,24.30
2023-03-22T10:45:58.510Z,24.34
2023-03-22T10:48:27.537Z,24.37
2023-03-22T10:50:56.873Z,24.36
2023-03-22T10:53:28.260Z,24.37
2023-03-22T10:55:55.609Z,24.35
2023-03-22T10:58:22.995Z,24.37
2023-03-22T11:00:51.070Z,24.37
2023-03-22T11:03:25.669Z,24.46
2023-03-22T11:05:59.329Z,24.52
2023-03-22T11:08:26.319Z,24.53
2023-03-22T11:10:53.402Z,24.58
2023-03-22T11:13:20.758Z,24.64
2023-03-22T11:15:52.298Z,24.59
2023-03-22T11:18:19.446Z,24.60
2023-03-22T11:20:53.977Z,24.62
2023-03-22T11:23:22.668Z,24.61
2023-03-22T11:25:50.838Z,24.57
2023-03-22T11:28:18.950Z,24.61
2023-03-22T11:30:58.984Z,24.58
2023-03-22T11:33:25.956Z,24.60
2023-03-22T11:35:54.265Z,24.61
2023-03-22T11:38:26.773Z,24.62
2023-03-22T11:40:54.834Z,24.65
2023-03-22T11:43:22.983Z,24.63
2023-03-22T11:45:51.784Z,24.66
2023-03-22T11:48:21.006Z,24.69
2023-03-22T11:50:48.030Z,24.71
2023-03-22T11:53:16.619Z,24.79
2023-03-22T11:55:45.350Z,24.87
2023-03-22T11:58:23.633Z,24.81
2023-03-22T12:00:52.049Z,24.79
2023-03-22T12:03:21.606Z,24.79
2023-03-22T12:05:49.883Z,24.81
2023-03-22T12:08:19.234Z,24.84
2023-03-22T12:10:49.251Z,24.84
2023-03-22T12:13:19.681Z,24.79
2023-03-22T12:15:48.901Z,24.81
2023-03-22T12:18:17.407Z,24.84
2023-03-22T12:20:49.081Z,24.81
2023-03-22T12:23:17.120Z,24.88
2023-03-22T12:25:46.380Z,24.93
2023-03-22T12:28:15.997Z,24.96
2023-03-22T12:30:45.264Z,25.01
2023-03-22T12:33:16.311Z,25.05
2023-03-22T12:35:44.792Z,25.03
2023-03-22T12:38:23.446Z,25.07
2023-03-22T12:40:52.423Z,25.13
2023-03-22T12:43:24.860Z,25.21
2023-03-22T12:45:54.853Z,25.17
2023-03-22T12:48:33.924Z,25.21
2023-03-22T12:51:03.058Z,25.17
2023-03-22T12:53:33.466Z,25.18
2023-03-22T12:56:00.814Z,25.17
2023-03-22T12:58:29.014Z,25.21
2023-03-22T13:00:56.845Z,25.28
2023-03-22T13:03:25.587Z,25.31
2023-03-22T13:05:59.712Z,25.33
2023-03-22T13:08:46.683Z,25.29
2023-03-22T13:11:22.109Z,25.36
2023-03-22T13:13:50.324Z,25.49
2023-03-22T13:16:20.183Z,25.52
2023-03-22T13:18:57.438Z,25.52
2023-03-22T13:21:25.416Z,25.54
2023-03-22T13:23:53.472Z,25.62
2023-03-22T13:26:22.395Z,25.71
2023-03-22T13:28:58.296Z,25.82
2023-03-22T13:31:40.654Z,25.86
2023-03-22T13:34:18.490Z,25.87
2023-03-22T13:36:49.418Z,25.88
2023-03-22T13:39:16.533Z,25.89
2023-03-22T13:41:45.766Z,25.88
2023-03-22T13:44:25.033Z,25.91
2023-03-22T13:46:52.505Z,25.93
2023-03-22T13:49:42.550Z,25.90
2023-03-22T13:52:09.755Z,25.92
2023-03-22T13:54:40.139Z,25.90
2023-03-22T13:57:15.464Z,25.88
2023-03-22T14:00:08.878Z,25.82
2023-03-22T14:02:40.276Z,25.76
2023-03-22T14:05:08.969Z,25.69
2023-03-22T14:07:39.679Z,25.66
2023-03-22T14:10:12.666Z,25.66
2023-03-22T14:12:46.183Z,25.68
2023-03-22T14:15:15.780Z,25.61
2023-03-22T14:17:46.769Z,25.87
2023-03-22T14:20:17.760Z,25.89
